Time,TemperatureF,DewpointF,PressureIn,WindDirection,WindDirectionDegrees,WindSpeedMPH,WindSpeedGustMPH,Humidity,HourlyPrecipIn,Conditions,Clouds,dailyrainin,SoftwareType,DateUTC
2013-09-09 00:14:00,58.0,45.0,30.09,NNW,339,0.0,0.0,63,0.00,,,0.00,,2013-09-09 04:14:00,
2013-09-09 00:24:00,58.0,46.0,30.09,NNW,339,0.0,0.0,64,0.00,,,0.00,,2013-09-09 04:24:00,
2013-09-09 00:43:00,57.0,45.0,30.09,NNW,339,0.0,0.0,65,0.00,,,0.00,,2013-09-09 04:43:00,
2013-09-09 00:54:00,57.0,46.0,30.10,NNW,339,0.0,0.0,67,0.00,,,0.00,,2013-09-09 04:54:00,
2013-09-09 01:13:00,56.0,46.0,30.10,NNW,339,0.0,0.0,70,0.00,,,0.00,,2013-09-09 05:13:00,
2013-09-09 01:23:00,55.0,46.0,30.10,NNW,339,0.0,0.0,72,0.00,,,0.00,,2013-09-09 05:23:00,
2013-09-09 01:53:00,54.0,46.0,30.10,NNW,339,0.0,0.0,74,0.00,,,0.00,,2013-09-09 05:53:00,
2013-09-09 02:12:00,54.0,46.0,30.11,NNW,339,0.0,0.0,74,0.00,,,0.00,,2013-09-09 06:12:00,
2013-09-09 02:22:00,53.0,45.0,30.11,NNW,339,0.0,0.0,74,0.00,,,0.00,,2013-09-09 06:22:00,
2013-09-09 02:42:00,53.0,45.0,30.11,NNW,339,0.0,0.0,75,0.00,,,0.00,,2013-09-09 06:42:00,
2013-09-09 02:52:00,53.0,45.0,30.12,NNW,339,0.0,0.0,74,0.00,,,0.00,,2013-09-09 06:52:00,
2013-09-09 03:11:00,52.0,45.0,30.12,NNW,339,0.0,0.0,76,0.00,,,0.00,,2013-09-09 07:11:00,
2013-09-09 03:22:00,52.0,45.0,30.12,NNW,339,0.0,0.0,77,0.00,,,0.00,,2013-09-09 07:22:00,
2013-09-09 03:43:00,51.0,45.0,30.13,NNW,339,0.0,0.0,79,0.00,,,0.00,,2013-09-09 07:43:00,
2013-09-09 03:52:00,51.0,45.0,30.14,NNW,339,0.0,0.0,80,0.00,,,0.00,,2013-09-09 07:52:00,
2013-09-09 04:12:00,51.0,46.0,30.14,NNW,339,0.0,0.0,82,0.00,,,0.00,,2013-09-09 08:12:00,
2013-09-09 04:22:00,51.0,46.0,30.15,NNW,339,0.0,0.0,83,0.00,,,0.00,,2013-09-09 08:22:00,
2013-09-09 04:52:00,49.0,45.0,30.16,NNW,339,0.0,0.0,86,0.00,,,0.00,,2013-09-09 08:52:00,
2013-09-09 05:12:00,49.0,46.0,30.17,NNW,339,0.0,0.0,88,0.00,,,0.00,,2013-09-09 09:12:00,
2013-09-09 05:22:00,49.0,46.0,30.18,NNW,339,0.0,0.0,88,0.00,,,0.00,,2013-09-09 09:22:00,
2013-09-09 05:53:00,48.0,45.0,30.19,NNW,339,0.0,0.0,89,0.00,,,0.00,,2013-09-09 09:53:00,
2013-09-09 06:12:00,48.0,45.0,30.20,NNW,339,0.0,0.0,90,0.00,,,0.00,,2013-09-09 10:12:00,
2013-09-09 06:23:00,48.0,45.0,30.20,NNW,339,0.0,0.0,91,0.00,,,0.00,,2013-09-09 10:23:00,
2013-09-09 06:42:00,48.0,45.0,30.21,NNW,339,0.0,0.0,91,0.00,,,0.00,,2013-09-09 10:42:00,
2013-09-09 06:52:00,47.0,45.0,30.22,NNW,339,0.0,0.0,92,0.00,,,0.00,,2013-09-09 10:52:00,
2013-09-09 07:12:00,47.0,45.0,30.22,NNW,339,0.0,0.0,92,0.00,,,0.00,,2013-09-09 11:12:00,
2013-09-09 07:22:00,47.0,45.0,30.23,NNW,339,0.0,0.0,92,0.00,,,0.00,,2013-09-09 11:22:00,
2013-09-09 07:52:00,48.0,46.0,30.24,NNW,339,0.0,0.0,93,0.00,,,0.00,,2013-09-09 11:52:00,
2013-09-09 08:12:00,49.0,47.0,30.24,NNW,339,0.0,0.0,92,0.00,,,0.00,,2013-09-09 12:12:00,
2013-09-09 08:22:00,50.0,48.0,30.24,NNW,339,0.0,0.0,92,0.00,,,0.00,,2013-09-09 12:22:00,
2013-09-09 08:42:00,52.0,49.0,30.23,NNW,339,0.0,0.0,89,0.00,,,0.00,,2013-09-09 12:42:00,
2013-09-09 08:52:00,53.0,48.0,30.24,NNW,339,0.0,0.0,84,0.00,,,0.00,,2013-09-09 12:52:00,
2013-09-09 09:11:00,57.0,48.0,30.24,NNW,339,0.0,0.0,72,0.00,,,0.00,,2013-09-09 13:11:00,
2013-09-09 09:22:00,58.0,47.0,30.24,NNW,339,0.0,0.0,68,0.00,,,0.00,,2013-09-09 13:22:00,
2013-09-09 09:42:00,60.0,47.0,30.24,NNW,339,0.0,0.0,62,0.00,,,0.00,,2013-09-09 13:42:00,
2013-09-09 09:52:00,60.0,47.0,30.24,NNW,339,0.0,0.0,62,0.00,,,0.00,,2013-09-09 13:52:00,
2013-09-09 10:12:00,62.0,48.0,30.24,NNW,339,0.0,0.0,60,0.00,,,0.00,,2013-09-09 14:12:00,
2013-09-09 10:22:00,63.0,48.0,30.24,NNW,339,0.0,0.0,59,0.00,,,0.00,,2013-09-09 14:22:00,
2013-09-09 10:42:00,65.0,49.0,30.24,NNW,339,0.0,0.0,57,0.00,,,0.00,,2013-09-09 14:42:00,
2013-09-09 10:52:00,64.0,48.0,30.25,NNW,339,0.0,0.0,56,0.00,,,0.00,,2013-09-09 14:52:00,
2013-09-09 11:11:00,66.0,48.0,30.24,NNW,339,0.0,0.0,53,0.00,,,0.00,,2013-09-09 15:11:00,
2013-09-09 11:22:00,68.0,50.0,30.24,NNW,339,0.0,0.0,52,0.00,,,0.00,,2013-09-09 15:22:00,
2013-09-09 11:43:00,69.0,50.0,30.24,NNW,339,0.0,0.0,50,0.00,,,0.00,,2013-09-09 15:43:00,
2013-09-09 11:53:00,69.0,50.0,30.24,NNW,339,0.0,0.0,51,0.00,,,0.00,,2013-09-09 15:53:00,
2013-09-09 12:13:00,69.0,48.0,30.23,NNW,339,0.0,0.0,47,0.00,,,0.00,,2013-09-09 16:13:00,
2013-09-09 12:25:00,69.0,49.0,30.23,NNW,339,0.0,0.0,49,0.00,,,0.00,,2013-09-09 16:25:00,
2013-09-09 12:43:00,70.0,50.0,30.22,NNW,339,0.0,0.0,49,0.00,,,0.00,,2013-09-09 16:43:00,
2013-09-09 12:54:00,70.0,49.0,30.22,NNW,339,0.0,0.0,47,0.00,,,0.00,,2013-09-09 16:54:00,
2013-09-09 13:12:00,69.0,49.0,30.21,NNW,339,0.0,0.0,49,0.00,,,0.00,,2013-09-09 17:12:00,
2013-09-09 13:23:00,69.0,48.0,30.21,NNW,339,0.0,0.0,48,0.00,,,0.00,,2013-09-09 17:23:00,
2013-09-09 13:53:00,71.0,49.0,30.20,NNW,339,0.0,0.0,46,0.00,,,0.00,,2013-09-09 17:53:00,
2013-09-09 14:13:00,71.0,49.0,30.19,NNW,339,0.0,0.0,45,0.00,,,0.00,,2013-09-09 18:13:00,
2013-09-09 14:22:00,72.0,50.0,30.19,NNW,339,0.0,0.0,46,0.00,,,0.00,,2013-09-09 18:22:00,
2013-09-09 14:52:00,72.0,50.0,30.19,NNW,339,0.0,0.0,46,0.00,,,0.00,,2013-09-09 18:52:00,
2013-09-09 15:12:00,72.0,52.0,30.19,NNW,339,0.0,0.0,50,0.00,,,0.00,,2013-09-09 19:12:00,
2013-09-09 15:22:00,71.0,50.0,30.19,NNW,339,0.0,0.0,48,0.00,,,0.00,,2013-09-09 19:22:00,
2013-09-09 15:43:00,72.0,52.0,30.18,NNW,339,0.0,0.0,50,0.00,,,0.00,,2013-09-09 19:43:00,
2013-09-09 15:52:00,72.0,52.0,30.18,NNW,339,0.0,0.0,50,0.00,,,0.00,,2013-09-09 19:52:00,
2013-09-09 16:12:00,73.0,54.0,30.18,NNW,339,0.0,0.0,51,0.00,,,0.00,,2013-09-09 20:12:00,
2013-09-09 16:22:00,72.0,54.0,30.18,NNW,339,0.0,0.0,53,0.00,,,0.00,,2013-09-09 20:22:00,
2013-09-09 16:42:00,73.0,56.0,30.17,NNW,339,0.0,0.0,55,0.00,,,0.00,,2013-09-09 20:42:00,
2013-09-09 16:53:00,73.0,55.0,30.17,NNW,339,0.0,0.0,53,0.00,,,0.00,,2013-09-09 20:53:00,
2013-09-09 17:12:00,72.0,55.0,30.17,NNW,339,0.0,0.0,56,0.00,,,0.00,,2013-09-09 21:12:00,
2013-09-09 17:22:00,71.0,55.0,30.16,NNW,339,0.0,0.0,57,0.00,,,0.00,,2013-09-09 21:22:00,
2013-09-09 17:44:00,70.0,54.0,30.16,NNW,339,0.0,0.0,57,0.00,,,0.00,,2013-09-09 21:44:00,
2013-09-09 17:54:00,70.0,54.0,30.16,NNW,339,0.0,0.0,57,0.00,,,0.00,,2013-09-09 21:54:00,
2013-09-09 18:13:00,70.0,55.0,30.16,NNW,339,0.0,0.0,59,0.00,,,0.00,,2013-09-09 22:13:00,
2013-09-09 18:24:00,70.0,55.0,30.16,NNW,339,0.0,0.0,58,0.00,,,0.00,,2013-09-09 22:24:00,
2013-09-09 18:43:00,69.0,54.0,30.17,NNW,339,0.0,0.0,58,0.00,,,0.00,,2013-09-09 22:43:00,
2013-09-09 18:54:00,69.0,54.0,30.16,NNW,339,0.0,0.0,58,0.00,,,0.00,,2013-09-09 22:54:00,
2013-09-09 19:12:00,68.0,53.0,30.16,NNW,339,0.0,0.0,59,0.00,,,0.00,,2013-09-09 23:12:00,
2013-09-09 19:22:00,67.0,53.0,30.16,NNW,339,0.0,0.0,60,0.00,,,0.00,,2013-09-09 23:22:00,
2013-09-09 19:52:00,66.0,53.0,30.16,NNW,339,0.0,0.0,63,0.00,,,0.00,,2013-09-09 23:52:00,
2013-09-09 20:12:00,65.0,53.0,30.16,NNW,339,0.0,0.0,65,0.00,,,0.00,,2013-09-10 00:12:00,
2013-09-09 20:22:00,64.0,52.0,30.16,NNW,339,0.0,0.0,66,0.00,,,0.00,,2013-09-10 00:22:00,
2013-09-09 20:42:00,64.0,54.0,30.17,NNW,339,0.0,0.0,69,0.00,,,0.00,,2013-09-10 00:42:00,
2013-09-09 20:52:00,63.0,53.0,30.17,NNW,339,0.0,0.0,70,0.00,,,0.00,,2013-09-10 00:52:00,
2013-09-09 21:11:00,63.0,54.0,30.17,NNW,339,0.0,0.0,72,0.00,,,0.00,,2013-09-10 01:11:00,
2013-09-09 21:21:00,63.0,54.0,30.17,NNW,339,0.0,0.0,73,0.00,,,0.00,,2013-09-10 01:21:00,
2013-09-09 21:42:00,62.0,54.0,30.17,NNW,339,0.0,0.0,76,0.00,,,0.00,,2013-09-10 01:42:00,
2013-09-09 21:52:00,62.0,55.0,30.17,NNW,339,0.0,0.0,77,0.00,,,0.00,,2013-09-10 01:52:00,
2013-09-09 22:12:00,61.0,54.0,30.16,NNW,339,0.0,0.0,79,0.00,,,0.00,,2013-09-10 02:12:00,
2013-09-09 22:22:00,61.0,55.0,30.16,NNW,339,0.0,0.0,80,0.00,,,0.00,,2013-09-10 02:22:00,
2013-09-09 22:42:00,61.0,55.0,30.16,NNW,339,0.0,0.0,81,0.00,,,0.00,,2013-09-10 02:42:00,
2013-09-09 22:52:00,61.0,55.0,30.16,NNW,339,0.0,0.0,81,0.00,,,0.00,,2013-09-10 02:52:00,
2013-09-09 23:12:00,62.0,56.0,30.16,NNW,339,0.0,0.0,81,0.00,,,0.00,,2013-09-10 03:12:00,
2013-09-09 23:22:00,62.0,56.0,30.16,NNW,339,0.0,0.0,81,0.00,,,0.00,,2013-09-10 03:22:00,
2013-09-09 23:54:00,62.0,57.0,30.16,NNW,339,0.0,0.0,83,0.00,,,0.00,,2013-09-10 03:54:00,